sensor_id;sensor_type;location;lat;lon;timestamp;temperature;humidity
1075;DHT22;526;51.392;12.448;2022-07-29T00:01:22;17.50;86.00
1075;DHT22;526;51.392;12.448;2022-07-29T00:03:47;17.50;85.90
1075;DHT22;526;51.392;12.448;2022-07-29T00:06:14;17.50;85.90
1075;DHT22;526;51.392;12.448;2022-07-29T00:08:39;17.50;86.10
1075;DHT22;526;51.392;12.448;2022-07-29T00:11:05;17.50;86.10
1075;DHT22;526;51.392;12.448;2022-07-29T00:13:31;17.50;86.20
1075;DHT22;526;51.392;12.448;2022-07-29T00:15:57;17.60;86.30
1075;DHT22;526;51.392;12.448;2022-07-29T00:18:22;17.60;86.60
1075;DHT22;526;51.392;12.448;2022-07-29T00:20:48;17.60;86.30
1075;DHT22;526;51.392;12.448;2022-07-29T00:23:13;17.60;86.30
1075;DHT22;526;51.392;12.448;2022-07-29T00:25:39;17.50;86.30
1075;DHT22;526;51.392;12.448;2022-07-29T00:28:04;17.50;86.30
1075;DHT22;526;51.392;12.448;2022-07-29T00:30:30;17.50;86.70
1075;DHT22;526;51.392;12.448;2022-07-29T00:32:56;17.50;86.80
1075;DHT22;526;51.392;12.448;2022-07-29T00:35:21;17.50;86.60
1075;DHT22;526;51.392;12.448;2022-07-29T00:38:05;17.50;86.50
1075;DHT22;526;51.392;12.448;2022-07-29T00:40:31;17.40;86.50
1075;DHT22;526;51.392;12.448;2022-07-29T00:45:24;17.40;86.60
1075;DHT22;526;51.392;12.448;2022-07-29T00:47:50;17.30;86.80
1075;DHT22;526;51.392;12.448;2022-07-29T00:50:16;17.30;86.80
1075;DHT22;526;51.392;12.448;2022-07-29T00:52:42;17.30;86.90
1075;DHT22;526;51.392;12.448;2022-07-29T00:55:13;17.30;87.00
1075;DHT22;526;51.392;12.448;2022-07-29T00:57:41;17.20;87.00
1075;DHT22;526;51.392;12.448;2022-07-29T01:00:14;17.20;87.10
1075;DHT22;526;51.392;12.448;2022-07-29T01:02:40;17.20;87.20
1075;DHT22;526;51.392;12.448;2022-07-29T01:05:06;17.20;87.20
1075;DHT22;526;51.392;12.448;2022-07-29T01:07:34;17.10;87.40
1075;DHT22;526;51.392;12.448;2022-07-29T01:10:02;17.10;87.30
1075;DHT22;526;51.392;12.448;2022-07-29T01:12:28;17.10;87.40
1075;DHT22;526;51.392;12.448;2022-07-29T01:14:58;17.10;87.50
1075;DHT22;526;51.392;12.448;2022-07-29T01:17:34;17.10;87.70
1075;DHT22;526;51.392;12.448;2022-07-29T01:20:13;17.10;87.70
1075;DHT22;526;51.392;12.448;2022-07-29T01:34:17;17.10;87.90
1075;DHT22;526;51.392;12.448;2022-07-29T01:36:55;17.10;88.10
1075;DHT22;526;51.392;12.448;2022-07-29T01:39:30;17.00;88.10
1075;DHT22;526;51.392;12.448;2022-07-29T01:42:49;17.00;88.10
1075;DHT22;526;51.392;12.448;2022-07-29T01:50:44;17.00;88.50
1075;DHT22;526;51.392;12.448;2022-07-29T01:53:12;17.00;88.40
1075;DHT22;526;51.392;12.448;2022-07-29T01:55:43;17.00;88.50
1075;DHT22;526;51.392;12.448;2022-07-29T01:58:11;17.00;88.80
1075;DHT22;526;51.392;12.448;2022-07-29T02:00:38;17.00;88.60
1075;DHT22;526;51.392;12.448;2022-07-29T02:03:09;17.00;88.50
1075;DHT22;526;51.392;12.448;2022-07-29T02:05:35;17.00;88.50
1075;DHT22;526;51.392;12.448;2022-07-29T02:08:04;16.90;88.70
1075;DHT22;526;51.392;12.448;2022-07-29T02:10:33;16.90;88.60
1075;DHT22;526;51.392;12.448;2022-07-29T02:12:59;16.90;88.80
1075;DHT22;526;51.392;12.448;2022-07-29T02:15:27;16.90;89.00
1075;DHT22;526;51.392;12.448;2022-07-29T02:17:58;16.90;89.00
1075;DHT22;526;51.392;12.448;2022-07-29T02:20:25;16.90;89.40
1075;DHT22;526;51.392;12.448;2022-07-29T02:22:52;16.90;89.20
1075;DHT22;526;51.392;12.448;2022-07-29T02:25:21;16.90;89.30
1075;DHT22;526;51.392;12.448;2022-07-29T02:27:48;16.90;89.30
1075;DHT22;526;51.392;12.448;2022-07-29T02:30:16;16.90;89.20
1075;DHT22;526;51.392;12.448;2022-07-29T02:32:43;16.90;89.20
1075;DHT22;526;51.392;12.448;2022-07-29T02:35:13;16.90;89.20
1075;DHT22;526;51.392;12.448;2022-07-29T02:37:39;16.90;89.00
1075;DHT22;526;51.392;12.448;2022-07-29T02:40:09;16.90;88.70
1075;DHT22;526;51.392;12.448;2022-07-29T02:42:37;16.90;89.00
1075;DHT22;526;51.392;12.448;2022-07-29T02:45:04;16.80;89.00
1075;DHT22;526;51.392;12.448;2022-07-29T02:47:38;16.80;89.20
1075;DHT22;526;51.392;12.448;2022-07-29T02:50:17;16.80;89.00
1075;DHT22;526;51.392;12.448;2022-07-29T02:52:52;16.80;89.10
1075;DHT22;526;51.392;12.448;2022-07-29T02:55:25;16.80;89.10
1075;DHT22;526;51.392;12.448;2022-07-29T02:58:01;16.80;89.30
1075;DHT22;526;51.392;12.448;2022-07-29T03:00:29;16.80;89.30
1075;DHT22;526;51.392;12.448;2022-07-29T03:02:59;16.80;89.30
1075;DHT22;526;51.392;12.448;2022-07-29T03:05:26;16.80;89.30
1075;DHT22;526;51.392;12.448;2022-07-29T03:07:58;16.80;89.30
1075;DHT22;526;51.392;12.448;2022-07-29T03:10:28;16.80;89.40
1075;DHT22;526;51.392;12.448;2022-07-29T03:12:55;16.80;89.20
1075;DHT22;526;51.392;12.448;2022-07-29T03:15:21;16.80;89.40
1075;DHT22;526;51.392;12.448;2022-07-29T03:17:47;16.80;89.50
1075;DHT22;526;51.392;12.448;2022-07-29T03:20:13;16.80;89.40
1075;DHT22;526;51.392;12.448;2022-07-29T03:22:40;16.80;89.40
1075;DHT22;526;51.392;12.448;2022-07-29T03:25:13;16.70;89.40
1075;DHT22;526;51.392;12.448;2022-07-29T03:27:40;16.70;89.30
1075;DHT22;526;51.392;12.448;2022-07-29T03:30:07;16.70;89.50
1075;DHT22;526;51.392;12.448;2022-07-29T03:32:33;16.70;89.40
1075;DHT22;526;51.392;12.448;2022-07-29T03:34:59;16.70;89.40
1075;DHT22;526;51.392;12.448;2022-07-29T03:37:25;16.70;89.30
1075;DHT22;526;51.392;12.448;2022-07-29T03:39:51;16.70;89.30
1075;DHT22;526;51.392;12.448;2022-07-29T03:42:19;16.70;89.30
1075;DHT22;526;51.392;12.448;2022-07-29T03:44:47;16.70;89.20
1075;DHT22;526;51.392;12.448;2022-07-29T03:47:17;16.70;89.20
1075;DHT22;526;51.392;12.448;2022-07-29T03:49:47;16.60;89.30
1075;DHT22;526;51.392;12.448;2022-07-29T03:52:13;16.60;89.20
1075;DHT22;526;51.392;12.448;2022-07-29T03:54:39;16.60;89.20
1075;DHT22;526;51.392;12.448;2022-07-29T03:57:06;16.60;89.30
1075;DHT22;526;51.392;12.448;2022-07-29T03:59:33;16.50;89.20
1075;DHT22;526;51.392;12.448;2022-07-29T04:02:03;16.50;89.40
1075;DHT22;526;51.392;12.448;2022-07-29T04:04:32;16.50;89.30
1075;DHT22;526;51.392;12.448;2022-07-29T04:06:58;16.50;89.30
1075;DHT22;526;51.392;12.448;2022-07-29T04:09:24;16.50;89.50
1075;DHT22;526;51.392;12.448;2022-07-29T04:11:50;16.50;89.40
1075;DHT22;526;51.392;12.448;2022-07-29T04:14:16;16.60;89.50
1075;DHT22;526;51.392;12.448;2022-07-29T04:16:42;16.60;89.40
1075;DHT22;526;51.392;12.448;2022-07-29T04:19:08;16.60;89.20
1075;DHT22;526;51.392;12.448;2022-07-29T04:21:37;16.60;89.30
1075;DHT22;526;51.392;12.448;2022-07-29T04:24:03;16.60;89.30
1075;DHT22;526;51.392;12.448;2022-07-29T04:26:29;16.60;89.20
1075;DHT22;526;51.392;12.448;2022-07-29T04:28:54;16.60;89.30
1075;DHT22;526;51.392;12.448;2022-07-29T04:31:20;16.60;89.50
1075;DHT22;526;51.392;12.448;2022-07-29T04:33:46;16.60;89.80
1075;DHT22;526;51.392;12.448;2022-07-29T04:36:11;16.60;89.90
1075;DHT22;526;51.392;12.448;2022-07-29T04:38:37;16.60;89.70
1075;DHT22;526;51.392;12.448;2022-07-29T04:41:03;16.60;89.50
1075;DHT22;526;51.392;12.448;2022-07-29T04:43:29;16.60;89.60
1075;DHT22;526;51.392;12.448;2022-07-29T04:45:54;16.60;89.60
1075;DHT22;526;51.392;12.448;2022-07-29T04:48:20;16.60;90.00
1075;DHT22;526;51.392;12.448;2022-07-29T04:50:45;16.60;89.80
1075;DHT22;526;51.392;12.448;2022-07-29T04:53:11;16.60;89.60
1075;DHT22;526;51.392;12.448;2022-07-29T04:55:36;16.60;89.70
1075;DHT22;526;51.392;12.448;2022-07-29T04:58:02;16.60;89.60
1075;DHT22;526;51.392;12.448;2022-07-29T05:00:28;16.60;89.70
1075;DHT22;526;51.392;12.448;2022-07-29T05:02:53;16.60;89.80
1075;DHT22;526;51.392;12.448;2022-07-29T05:05:19;16.60;89.80
1075;DHT22;526;51.392;12.448;2022-07-29T05:07:44;16.60;90.00
1075;DHT22;526;51.392;12.448;2022-07-29T05:10:10;16.60;89.90
1075;DHT22;526;51.392;12.448;2022-07-29T05:12:36;16.60;89.90
1075;DHT22;526;51.392;12.448;2022-07-29T05:15:02;16.70;90.10
1075;DHT22;526;51.392;12.448;2022-07-29T05:17:28;16.70;89.70
1075;DHT22;526;51.392;12.448;2022-07-29T05:19:53;16.70;90.00
1075;DHT22;526;51.392;12.448;2022-07-29T05:22:20;16.70;90.10
1075;DHT22;526;51.392;12.448;2022-07-29T05:24:46;16.70;90.30
1075;DHT22;526;51.392;12.448;2022-07-29T05:27:11;16.80;90.40
1075;DHT22;526;51.392;12.448;2022-07-29T05:29:37;16.80;90.40
1075;DHT22;526;51.392;12.448;2022-07-29T05:32:04;16.80;90.40
1075;DHT22;526;51.392;12.448;2022-07-29T05:34:29;16.90;90.40
1075;DHT22;526;51.392;12.448;2022-07-29T05:36:56;17.00;90.80
1075;DHT22;526;51.392;12.448;2022-07-29T05:39:22;17.00;90.80
1075;DHT22;526;51.392;12.448;2022-07-29T05:41:48;17.00;91.60
1075;DHT22;526;51.392;12.448;2022-07-29T05:44:14;17.10;90.50
1075;DHT22;526;51.392;12.448;2022-07-29T05:46:40;17.10;90.50
1075;DHT22;526;51.392;12.448;2022-07-29T05:49:05;17.20;90.60
1075;DHT22;526;51.392;12.448;2022-07-29T05:51:32;17.20;90.80
1075;DHT22;526;51.392;12.448;2022-07-29T05:53:58;17.30;90.80
1075;DHT22;526;51.392;12.448;2022-07-29T05:56:24;17.30;91.00
1075;DHT22;526;51.392;12.448;2022-07-29T05:58:50;17.40;90.80
1075;DHT22;526;51.392;12.448;2022-07-29T06:01:16;17.40;90.80
1075;DHT22;526;51.392;12.448;2022-07-29T06:03:41;17.50;90.70
1075;DHT22;526;51.392;12.448;2022-07-29T06:06:07;17.50;90.90
1075;DHT22;526;51.392;12.448;2022-07-29T06:08:33;17.60;90.90
1075;DHT22;526;51.392;12.448;2022-07-29T06:11:00;17.60;91.00
1075;DHT22;526;51.392;12.448;2022-07-29T06:13:25;17.70;90.70
1075;DHT22;526;51.392;12.448;2022-07-29T06:15:51;17.70;89.80
1075;DHT22;526;51.392;12.448;2022-07-29T06:18:17;17.70;89.90
1075;DHT22;526;51.392;12.448;2022-07-29T06:20:42;17.70;89.60
1075;DHT22;526;51.392;12.448;2022-07-29T06:23:08;17.80;89.20
1075;DHT22;526;51.392;12.448;2022-07-29T06:25:35;17.80;89.00
1075;DHT22;526;51.392;12.448;2022-07-29T06:28:02;17.80;88.80
1075;DHT22;526;51.392;12.448;2022-07-29T06:30:27;17.90;89.10
1075;DHT22;526;51.392;12.448;2022-07-29T06:32:54;17.90;89.90
1075;DHT22;526;51.392;12.448;2022-07-29T06:35:20;17.90;88.90
1075;DHT22;526;51.392;12.448;2022-07-29T06:37:45;18.00;89.00
1075;DHT22;526;51.392;12.448;2022-07-29T06:40:11;18.00;88.60
1075;DHT22;526;51.392;12.448;2022-07-29T06:42:55;18.00;89.30
1075;DHT22;526;51.392;12.448;2022-07-29T06:45:21;18.10;89.60
1075;DHT22;526;51.392;12.448;2022-07-29T06:47:46;18.10;90.30
1075;DHT22;526;51.392;12.448;2022-07-29T06:50:13;18.20;90.50
1075;DHT22;526;51.392;12.448;2022-07-29T06:52:40;18.20;90.10
1075;DHT22;526;51.392;12.448;2022-07-29T06:55:07;18.20;90.10
1075;DHT22;526;51.392;12.448;2022-07-29T06:57:32;18.30;88.90
1075;DHT22;526;51.392;12.448;2022-07-29T06:59:58;18.30;88.50
1075;DHT22;526;51.392;12.448;2022-07-29T07:02:23;18.30;88.70
1075;DHT22;526;51.392;12.448;2022-07-29T07:04:49;18.40;89.10
1075;DHT22;526;51.392;12.448;2022-07-29T07:07:15;18.40;88.40
1075;DHT22;526;51.392;12.448;2022-07-29T07:09:40;18.40;88.80
1075;DHT22;526;51.392;12.448;2022-07-29T07:12:06;18.50;88.30
1075;DHT22;526;51.392;12.448;2022-07-29T07:14:32;18.50;88.90
1075;DHT22;526;51.392;12.448;2022-07-29T07:16:57;18.70;89.30
1075;DHT22;526;51.392;12.448;2022-07-29T07:19:25;18.80;88.70
1075;DHT22;526;51.392;12.448;2022-07-29T07:21:53;18.90;88.50
1075;DHT22;526;51.392;12.448;2022-07-29T07:24:18;19.00;87.30
1075;DHT22;526;51.392;12.448;2022-07-29T07:26:44;19.00;86.90
1075;DHT22;526;51.392;12.448;2022-07-29T07:29:10;19.10;86.70
1075;DHT22;526;51.392;12.448;2022-07-29T07:31:36;19.10;86.50
1075;DHT22;526;51.392;12.448;2022-07-29T07:34:02;19.20;85.80
1075;DHT22;526;51.392;12.448;2022-07-29T07:36:28;19.30;86.10
1075;DHT22;526;51.392;12.448;2022-07-29T07:38:53;19.30;86.10
1075;DHT22;526;51.392;12.448;2022-07-29T07:41:19;19.40;85.30
1075;DHT22;526;51.392;12.448;2022-07-29T07:43:44;19.40;85.30
1075;DHT22;526;51.392;12.448;2022-07-29T07:46:10;19.40;85.40
1075;DHT22;526;51.392;12.448;2022-07-29T07:48:36;19.40;85.40
1075;DHT22;526;51.392;12.448;2022-07-29T07:51:01;19.50;84.90
1075;DHT22;526;51.392;12.448;2022-07-29T07:53:27;19.70;85.50
1075;DHT22;526;51.392;12.448;2022-07-29T07:55:54;19.80;85.20
1075;DHT22;526;51.392;12.448;2022-07-29T07:58:20;20.00;84.30
1075;DHT22;526;51.392;12.448;2022-07-29T08:00:46;20.10;84.10
1075;DHT22;526;51.392;12.448;2022-07-29T08:03:12;20.20;83.70
1075;DHT22;526;51.392;12.448;2022-07-29T08:05:39;20.30;83.80
1075;DHT22;526;51.392;12.448;2022-07-29T08:08:05;20.40;82.90
1075;DHT22;526;51.392;12.448;2022-07-29T08:10:32;20.50;83.30
1075;DHT22;526;51.392;12.448;2022-07-29T08:13:16;20.70;83.70
1075;DHT22;526;51.392;12.448;2022-07-29T08:15:41;20.90;83.30
1075;DHT22;526;51.392;12.448;2022-07-29T08:18:08;21.00;83.40
1075;DHT22;526;51.392;12.448;2022-07-29T08:20:35;21.20;83.30
1075;DHT22;526;51.392;12.448;2022-07-29T08:23:01;21.40;83.00
1075;DHT22;526;51.392;12.448;2022-07-29T08:25:27;21.50;82.80
1075;DHT22;526;51.392;12.448;2022-07-29T08:27:53;21.70;82.80
1075;DHT22;526;51.392;12.448;2022-07-29T08:30:18;21.80;81.70
1075;DHT22;526;51.392;12.448;2022-07-29T08:32:44;22.00;81.20
1075;DHT22;526;51.392;12.448;2022-07-29T08:35:10;22.20;81.90
1075;DHT22;526;51.392;12.448;2022-07-29T08:37:35;22.30;82.30
1075;DHT22;526;51.392;12.448;2022-07-29T08:40:01;22.50;81.90
1075;DHT22;526;51.392;12.448;2022-07-29T08:42:27;22.70;81.30
1075;DHT22;526;51.392;12.448;2022-07-29T08:44:53;22.80;80.50
1075;DHT22;526;51.392;12.448;2022-07-29T08:47:19;22.90;79.00
1075;DHT22;526;51.392;12.448;2022-07-29T08:49:45;23.00;78.10
1075;DHT22;526;51.392;12.448;2022-07-29T08:52:13;23.10;78.10
1075;DHT22;526;51.392;12.448;2022-07-29T08:54:43;23.20;78.30
1075;DHT22;526;51.392;12.448;2022-07-29T08:57:10;23.30;78.30
1075;DHT22;526;51.392;12.448;2022-07-29T08:59:40;23.50;78.60
1075;DHT22;526;51.392;12.448;2022-07-29T09:02:12;23.60;77.90
1075;DHT22;526;51.392;12.448;2022-07-29T09:04:41;23.80;77.50
1075;DHT22;526;51.392;12.448;2022-07-29T09:07:07;23.90;77.80
1075;DHT22;526;51.392;12.448;2022-07-29T09:09:33;24.10;77.00
1075;DHT22;526;51.392;12.448;2022-07-29T09:11:59;24.20;77.20
1075;DHT22;526;51.392;12.448;2022-07-29T09:14:25;24.30;77.40
1075;DHT22;526;51.392;12.448;2022-07-29T09:16:55;24.50;77.20
1075;DHT22;526;51.392;12.448;2022-07-29T09:21:49;24.80;77.00
1075;DHT22;526;51.392;12.448;2022-07-29T09:24:42;24.90;76.70
1075;DHT22;526;51.392;12.448;2022-07-29T09:27:11;25.00;75.70
1075;DHT22;526;51.392;12.448;2022-07-29T09:29:37;25.00;75.40
1075;DHT22;526;51.392;12.448;2022-07-29T09:32:07;25.10;75.40
1075;DHT22;526;51.392;12.448;2022-07-29T09:34:34;25.10;75.20
1075;DHT22;526;51.392;12.448;2022-07-29T09:37:00;25.10;74.80
1075;DHT22;526;51.392;12.448;2022-07-29T09:39:34;25.20;75.50
1075;DHT22;526;51.392;12.448;2022-07-29T09:42:03;25.30;74.90
1075;DHT22;526;51.392;12.448;2022-07-29T09:44:47;25.40;75.20
1075;DHT22;526;51.392;12.448;2022-07-29T09:47:18;25.40;74.20
1075;DHT22;526;51.392;12.448;2022-07-29T09:49:59;25.40;73.80
1075;DHT22;526;51.392;12.448;2022-07-29T09:52:27;25.40;73.10
1075;DHT22;526;51.392;12.448;2022-07-29T09:54:53;25.50;73.30
1075;DHT22;526;51.392;12.448;2022-07-29T09:57:26;25.50;73.60
1075;DHT22;526;51.392;12.448;2022-07-29T10:00:00;25.60;73.30
1075;DHT22;526;51.392;12.448;2022-07-29T10:02:31;25.80;74.00
1075;DHT22;526;51.392;12.448;2022-07-29T10:04:58;25.90;73.00
1075;DHT22;526;51.392;12.448;2022-07-29T10:07:24;25.90;72.10
1075;DHT22;526;51.392;12.448;2022-07-29T10:09:57;25.90;72.00
1075;DHT22;526;51.392;12.448;2022-07-29T10:12:23;25.90;72.30
1075;DHT22;526;51.392;12.448;2022-07-29T10:14:50;25.90;72.10
1075;DHT22;526;51.392;12.448;2022-07-29T10:17:16;26.00;72.40
1075;DHT22;526;51.392;12.448;2022-07-29T10:19:44;26.10;72.20
1075;DHT22;526;51.392;12.448;2022-07-29T10:22:10;26.20;72.10
1075;DHT22;526;51.392;12.448;2022-07-29T10:24:37;26.40;71.70
1075;DHT22;526;51.392;12.448;2022-07-29T10:27:05;26.50;72.50
1075;DHT22;526;51.392;12.448;2022-07-29T10:29:31;26.60;71.70
1075;DHT22;526;51.392;12.448;2022-07-29T10:32:25;26.70;71.10
1075;DHT22;526;51.392;12.448;2022-07-29T10:37:47;26.90;70.80
1075;DHT22;526;51.392;12.448;2022-07-29T10:43:32;27.10;69.80
1075;DHT22;526;51.392;12.448;2022-07-29T10:46:02;27.10;70.50
1075;DHT22;526;51.392;12.448;2022-07-29T10:48:28;27.10;71.60
1075;DHT22;526;51.392;12.448;2022-07-29T10:53:24;27.40;69.20
1075;DHT22;526;51.392;12.448;2022-07-29T10:55:51;27.60;69.80
1075;DHT22;526;51.392;12.448;2022-07-29T11:00:48;27.80;68.60
1075;DHT22;526;51.392;12.448;2022-07-29T11:06:06;28.00;68.40
1075;DHT22;526;51.392;12.448;2022-07-29T11:08:31;28.10;68.10
1075;DHT22;526;51.392;12.448;2022-07-29T11:16:11;28.10;68.40
1075;DHT22;526;51.392;12.448;2022-07-29T11:21:40;28.30;68.50
1075;DHT22;526;51.392;12.448;2022-07-29T11:24:13;28.40;67.70
1075;DHT22;526;51.392;12.448;2022-07-29T11:26:39;28.60;67.20
1075;DHT22;526;51.392;12.448;2022-07-29T11:29:19;28.70;67.40
1075;DHT22;526;51.392;12.448;2022-07-29T11:31:50;28.80;66.60
1075;DHT22;526;51.392;12.448;2022-07-29T11:34:29;28.80;66.10
1075;DHT22;526;51.392;12.448;2022-07-29T11:39:37;29.00;67.90
1075;DHT22;526;51.392;12.448;2022-07-29T11:47:24;29.30;66.50
1075;DHT22;526;51.392;12.448;2022-07-29T11:49:50;29.40;67.20
1075;DHT22;526;51.392;12.448;2022-07-29T11:52:18;29.50;66.10
1075;DHT22;526;51.392;12.448;2022-07-29T11:54:47;29.60;66.30
1075;DHT22;526;51.392;12.448;2022-07-29T11:57:14;29.80;65.70
1075;DHT22;526;51.392;12.448;2022-07-29T11:59:42;29.80;65.20
1075;DHT22;526;51.392;12.448;2022-07-29T12:02:08;29.80;66.30
1075;DHT22;526;51.392;12.448;2022-07-29T12:04:48;30.00;66.30
1075;DHT22;526;51.392;12.448;2022-07-29T12:07:14;30.10;66.90
1075;DHT22;526;51.392;12.448;2022-07-29T12:09:40;30.20;65.50
1075;DHT22;526;51.392;12.448;2022-07-29T12:12:05;30.30;65.20
1075;DHT22;526;51.392;12.448;2022-07-29T12:14:33;30.40;66.20
1075;DHT22;526;51.392;12.448;2022-07-29T12:16:59;30.50;65.20
1075;DHT22;526;51.392;12.448;2022-07-29T12:19:26;30.60;65.50
1075;DHT22;526;51.392;12.448;2022-07-29T12:21:54;30.70;65.30
1075;DHT22;526;51.392;12.448;2022-07-29T12:24:21;30.80;65.10
1075;DHT22;526;51.392;12.448;2022-07-29T12:26:57;31.00;63.20
1075;DHT22;526;51.392;12.448;2022-07-29T12:29:24;31.20;62.80
1075;DHT22;526;51.392;12.448;2022-07-29T12:31:53;31.40;63.00
1075;DHT22;526;51.392;12.448;2022-07-29T12:34:22;31.50;63.70
1075;DHT22;526;51.392;12.448;2022-07-29T12:36:49;31.60;65.30
1075;DHT22;526;51.392;12.448;2022-07-29T12:39:16;31.70;64.40
1075;DHT22;526;51.392;12.448;2022-07-29T12:41:42;31.80;63.20
1075;DHT22;526;51.392;12.448;2022-07-29T12:44:09;31.70;63.00
1075;DHT22;526;51.392;12.448;2022-07-29T12:46:34;31.70;64.30
1075;DHT22;526;51.392;12.448;2022-07-29T12:49:00;31.60;63.80
1075;DHT22;526;51.392;12.448;2022-07-29T12:51:34;31.50;63.50
1075;DHT22;526;51.392;12.448;2022-07-29T12:57:51;31.40;64.50
1075;DHT22;526;51.392;12.448;2022-07-29T13:04:34;31.40;65.00
1075;DHT22;526;51.392;12.448;2022-07-29T13:07:32;31.40;65.10
1075;DHT22;526;51.392;12.448;2022-07-29T13:10:35;31.30;65.90
1075;DHT22;526;51.392;12.448;2022-07-29T13:13:52;31.10;65.50
1075;DHT22;526;51.392;12.448;2022-07-29T13:20:04;30.90;65.70
1075;DHT22;526;51.392;12.448;2022-07-29T13:29:41;30.60;63.60
1075;DHT22;526;51.392;12.448;2022-07-29T13:34:59;30.40;64.00
1075;DHT22;526;51.392;12.448;2022-07-29T13:37:26;30.40;64.30
1075;DHT22;526;51.392;12.448;2022-07-29T13:39:57;30.30;65.40
1075;DHT22;526;51.392;12.448;2022-07-29T13:42:24;30.30;65.50
1075;DHT22;526;51.392;12.448;2022-07-29T13:44:50;30.30;65.80
1075;DHT22;526;51.392;12.448;2022-07-29T13:47:20;30.30;64.50
1075;DHT22;526;51.392;12.448;2022-07-29T13:49:46;30.30;65.40
1075;DHT22;526;51.392;12.448;2022-07-29T13:52:13;30.30;65.40
1075;DHT22;526;51.392;12.448;2022-07-29T13:54:39;30.30;67.70
1075;DHT22;526;51.392;12.448;2022-07-29T13:57:05;30.20;67.40
1075;DHT22;526;51.392;12.448;2022-07-29T13:59:31;30.20;67.40
1075;DHT22;526;51.392;12.448;2022-07-29T14:01:57;30.10;67.80
1075;DHT22;526;51.392;12.448;2022-07-29T14:04:22;30.00;68.90
1075;DHT22;526;51.392;12.448;2022-07-29T14:06:51;29.90;69.50
1075;DHT22;526;51.392;12.448;2022-07-29T14:09:17;29.80;68.40
1075;DHT22;526;51.392;12.448;2022-07-29T14:11:42;29.80;68.70
1075;DHT22;526;51.392;12.448;2022-07-29T14:14:08;29.70;67.80
1075;DHT22;526;51.392;12.448;2022-07-29T14:16:35;29.70;69.20
1075;DHT22;526;51.392;12.448;2022-07-29T14:19:01;29.60;68.90
1075;DHT22;526;51.392;12.448;2022-07-29T14:21:27;29.60;69.40
1075;DHT22;526;51.392;12.448;2022-07-29T14:23:53;29.50;68.90
1075;DHT22;526;51.392;12.448;2022-07-29T14:26:20;29.40;69.60
1075;DHT22;526;51.392;12.448;2022-07-29T14:28:47;29.40;69.10
1075;DHT22;526;51.392;12.448;2022-07-29T14:31:13;29.30;68.10
1075;DHT22;526;51.392;12.448;2022-07-29T14:33:38;29.30;67.20
1075;DHT22;526;51.392;12.448;2022-07-29T14:36:04;29.10;67.50
1075;DHT22;526;51.392;12.448;2022-07-29T14:38:30;29.00;67.30
1075;DHT22;526;51.392;12.448;2022-07-29T14:40:55;29.00;67.50
1075;DHT22;526;51.392;12.448;2022-07-29T14:43:21;28.90;67.30
1075;DHT22;526;51.392;12.448;2022-07-29T14:45:46;28.90;67.80
1075;DHT22;526;51.392;12.448;2022-07-29T14:48:12;28.90;67.70
1075;DHT22;526;51.392;12.448;2022-07-29T14:50:37;28.80;67.40
1075;DHT22;526;51.392;12.448;2022-07-29T14:53:03;28.70;67.80
1075;DHT22;526;51.392;12.448;2022-07-29T14:55:29;28.70;67.80
1075;DHT22;526;51.392;12.448;2022-07-29T14:57:55;28.70;68.10
1075;DHT22;526;51.392;12.448;2022-07-29T15:00:21;28.70;68.20
1075;DHT22;526;51.392;12.448;2022-07-29T15:02:47;28.70;68.50
1075;DHT22;526;51.392;12.448;2022-07-29T15:05:13;28.70;68.50
1075;DHT22;526;51.392;12.448;2022-07-29T15:07:39;28.70;67.80
1075;DHT22;526;51.392;12.448;2022-07-29T15:10:05;28.60;68.30
1075;DHT22;526;51.392;12.448;2022-07-29T15:12:31;28.60;68.70
1075;DHT22;526;51.392;12.448;2022-07-29T15:14:57;28.60;69.50
1075;DHT22;526;51.392;12.448;2022-07-29T15:17:23;28.70;69.70
1075;DHT22;526;51.392;12.448;2022-07-29T15:19:48;28.70;70.40
1075;DHT22;526;51.392;12.448;2022-07-29T15:22:14;28.70;70.80
1075;DHT22;526;51.392;12.448;2022-07-29T15:24:39;28.70;70.20
1075;DHT22;526;51.392;12.448;2022-07-29T15:27:05;28.70;69.80
1075;DHT22;526;51.392;12.448;2022-07-29T15:29:31;28.60;69.70
1075;DHT22;526;51.392;12.448;2022-07-29T15:31:56;28.60;69.90
1075;DHT22;526;51.392;12.448;2022-07-29T15:34:22;28.60;70.00
1075;DHT22;526;51.392;12.448;2022-07-29T15:36:52;28.60;70.00
1075;DHT22;526;51.392;12.448;2022-07-29T15:39:18;28.60;69.80
1075;DHT22;526;51.392;12.448;2022-07-29T15:41:44;28.60;68.90
1075;DHT22;526;51.392;12.448;2022-07-29T15:44:09;28.60;68.70
1075;DHT22;526;51.392;12.448;2022-07-29T15:46:35;28.60;68.60
1075;DHT22;526;51.392;12.448;2022-07-29T15:49:19;28.60;68.70
1075;DHT22;526;51.392;12.448;2022-07-29T15:51:45;28.60;68.40
1075;DHT22;526;51.392;12.448;2022-07-29T15:54:10;28.60;68.40
1075;DHT22;526;51.392;12.448;2022-07-29T15:56:36;28.60;70.00
1075;DHT22;526;51.392;12.448;2022-07-29T15:59:01;28.50;71.70
1075;DHT22;526;51.392;12.448;2022-07-29T16:01:27;28.20;73.20
1075;DHT22;526;51.392;12.448;2022-07-29T16:03:53;27.80;74.30
1075;DHT22;526;51.392;12.448;2022-07-29T16:06:19;27.50;75.30
1075;DHT22;526;51.392;12.448;2022-07-29T16:08:44;27.20;75.90
1075;DHT22;526;51.392;12.448;2022-07-29T16:11:10;26.90;76.80
1075;DHT22;526;51.392;12.448;2022-07-29T16:13:36;26.80;77.40
1075;DHT22;526;51.392;12.448;2022-07-29T16:16:01;26.70;77.90
1075;DHT22;526;51.392;12.448;2022-07-29T16:18:27;26.50;78.30
1075;DHT22;526;51.392;12.448;2022-07-29T16:20:52;26.40;78.70
1075;DHT22;526;51.392;12.448;2022-07-29T16:23:18;26.20;78.90
1075;DHT22;526;51.392;12.448;2022-07-29T16:25:44;26.10;79.30
1075;DHT22;526;51.392;12.448;2022-07-29T16:28:10;26.10;79.50
1075;DHT22;526;51.392;12.448;2022-07-29T16:30:36;26.00;79.70
1075;DHT22;526;51.392;12.448;2022-07-29T16:33:02;26.00;79.90
1075;DHT22;526;51.392;12.448;2022-07-29T16:35:27;25.90;79.80
1075;DHT22;526;51.392;12.448;2022-07-29T16:37:56;25.80;80.20
1075;DHT22;526;51.392;12.448;2022-07-29T16:40:21;25.70;80.00
1075;DHT22;526;51.392;12.448;2022-07-29T16:42:47;25.70;80.50
1075;DHT22;526;51.392;12.448;2022-07-29T16:45:13;25.70;80.50
1075;DHT22;526;51.392;12.448;2022-07-29T16:47:39;25.60;80.70
1075;DHT22;526;51.392;12.448;2022-07-29T16:50:05;25.60;81.00
1075;DHT22;526;51.392;12.448;2022-07-29T16:52:31;25.60;81.40
1075;DHT22;526;51.392;12.448;2022-07-29T16:54:56;25.60;81.40
1075;DHT22;526;51.392;12.448;2022-07-29T16:57:22;25.60;81.50
1075;DHT22;526;51.392;12.448;2022-07-29T16:59:47;25.60;81.40
1075;DHT22;526;51.392;12.448;2022-07-29T17:02:15;25.60;81.90
1075;DHT22;526;51.392;12.448;2022-07-29T17:04:41;25.70;82.20
1075;DHT22;526;51.392;12.448;2022-07-29T17:07:06;25.70;82.00
1075;DHT22;526;51.392;12.448;2022-07-29T17:09:32;25.80;82.10
1075;DHT22;526;51.392;12.448;2022-07-29T17:11:57;25.80;81.40
1075;DHT22;526;51.392;12.448;2022-07-29T17:14:28;25.80;81.90
1075;DHT22;526;51.392;12.448;2022-07-29T17:16:57;25.80;81.60
1075;DHT22;526;51.392;12.448;2022-07-29T17:19:24;25.90;81.70